Time;durP1;ratioP1;P1;durP2;ratioP2;P2;SDS_P1;SDS_P2;PMS_P1;PMS_P2;Temp;Humidity;BMP_temperature;BMP_pressure;BME280_temperature;BME280_humidity;BME280_pressure;Samples;Min_cycle;Max_cycle;Signal;HPM_P1;HPM_P2
2023/08/31 00:02:10;;;;;;;1999.90;999.90;;;12.60;90.70;;;;;;5092155;28;20081;-73
2023/08/31 00:04:36;;;;;;;1999.90;999.90;;;12.60;90.80;;;;;;5090112;28;20024;-73
2023/08/31 00:07:01;;;;;;;1999.90;999.90;;;12.60;90.50;;;;;;5091133;28;20036;-73
2023/08/31 00:09:27;;;;;;;1999.90;999.90;;;12.60;90.40;;;;;;5088985;28;20028;-72
2023/08/31 00:11:53;;;;;;;1999.90;999.90;;;12.60;90.40;;;;;;5092863;28;20389;-73
2023/08/31 00:14:18;;;;;;;1999.90;999.90;;;12.60;90.40;;;;;;5090772;28;20036;-72
2023/08/31 00:16:47;;;;;;;1999.90;999.90;;;12.60;90.60;;;;;;5089478;28;20028;-73
2023/08/31 00:19:14;;;;;;;1999.90;999.90;;;12.60;90.20;;;;;;5089456;28;20108;-73
2023/08/31 00:21:41;;;;;;;1999.90;999.90;;;12.70;90.10;;;;;;5088002;28;20031;-73
2023/08/31 00:24:09;;;;;;;1999.90;999.90;;;12.70;89.70;;;;;;5090973;28;20028;-73
2023/08/31 00:26:40;;;;;;;1999.90;999.90;;;12.80;89.40;;;;;;5088128;28;20089;-73
2023/08/31 00:29:06;;;;;;;1999.90;999.90;;;12.90;89.20;;;;;;5090754;28;20028;-72
2023/08/31 00:31:32;;;;;;;1999.90;999.90;;;12.90;90.30;;;;;;5088707;28;20028;-72
2023/08/31 00:33:57;;;;;;;1999.90;999.90;;;12.70;90.70;;;;;;5086464;28;20031;-72
2023/08/31 00:36:23;;;;;;;1999.90;999.90;;;12.60;92.20;;;;;;5087875;28;20077;-73
2023/08/31 00:38:49;;;;;;;1999.90;999.90;;;12.50;93.10;;;;;;5088282;28;20614;-72
2023/08/31 00:41:14;;;;;;;1999.90;999.90;;;13.90;95.20;;;;;;5089053;28;20070;-73
2023/08/31 00:43:40;;;;;;;1999.90;999.90;;;13.90;98.60;;;;;;5090989;28;20032;-72
2023/08/31 00:46:06;;;;;;;1999.90;999.90;;;13.90;99.90;;;;;;5088841;28;20518;-71
2023/08/31 00:48:32;;;;;;;1999.90;999.90;;;13.80;99.90;;;;;;5088611;28;20028;-73
2023/08/31 00:50:58;;;;;;;1999.90;999.90;;;13.70;99.90;;;;;;5088232;28;20055;-72
2023/08/31 00:53:25;;;;;;;1999.90;999.90;;;13.80;99.90;;;;;;5090036;28;20402;-72
2023/08/31 00:55:51;;;;;;;1999.90;999.90;;;13.70;99.90;;;;;;5088939;28;20714;-73
2023/08/31 00:58:16;;;;;;;1999.90;999.90;;;13.70;99.90;;;;;;5089812;28;20038;-72
2023/08/31 01:01:03;;;;;;;1999.90;999.90;;;13.70;99.90;;;;;;5084036;28;20039;-73
2023/08/31 01:03:47;;;;;;;1999.90;999.90;;;13.60;99.90;;;;;;5087236;28;20583;-72
2023/08/31 01:06:22;;;;;;;1999.90;999.90;;;13.50;99.90;;;;;;5088768;28;20788;-73
2023/08/31 01:09:07;;;;;;;1999.90;999.90;;;13.50;99.90;;;;;;5089492;28;20024;-73
2023/08/31 01:11:56;;;;;;;1999.90;999.90;;;13.40;99.90;;;;;;5092618;28;20034;-73
2023/08/31 01:14:25;;;;;;;1999.90;999.90;;;13.40;99.90;;;;;;5086911;28;20032;-72
2023/08/31 01:16:54;;;;;;;1999.90;999.90;;;13.40;99.90;;;;;;5079362;28;20038;-73
2023/08/31 01:19:46;;;;;;;1999.90;999.90;;;13.40;99.90;;;;;;5087378;28;20070;-74
2023/08/31 01:22:35;;;;;;;1999.90;999.90;;;13.30;99.90;;;;;;5083784;28;20036;-73
2023/08/31 01:25:04;;;;;;;1999.90;999.90;;;13.20;99.90;;;;;;5075289;28;20127;-73
2023/08/31 01:27:33;;;;;;;1999.90;999.90;;;13.10;99.90;;;;;;5085825;28;20028;-73
2023/08/31 01:29:58;;;;;;;1999.90;999.90;;;13.00;99.90;;;;;;5080289;28;20078;-73
2023/08/31 01:32:24;;;;;;;1999.90;999.90;;;12.70;99.90;;;;;;5086611;28;20494;-74
2023/08/31 01:34:53;;;;;;;1999.90;999.90;;;12.70;99.90;;;;;;5087401;28;20043;-73
2023/08/31 01:37:34;;;;;;;1999.90;999.90;;;12.50;99.90;;;;;;5089622;28;20363;-73
2023/08/31 01:40:11;;;;;;;1999.90;999.90;;;12.30;99.90;;;;;;5084569;28;20020;-73
2023/08/31 01:42:37;;;;;;;1999.90;999.90;;;12.40;99.90;;;;;;5082549;28;20028;-74
2023/08/31 01:45:05;;;;;;;1999.90;999.90;;;12.60;99.90;;;;;;5088968;28;20077;-74
2023/08/31 01:47:31;;;;;;;1999.90;999.90;;;12.50;99.90;;;;;;5084698;28;20036;-74
2023/08/31 01:49:56;;;;;;;1999.90;999.90;;;12.60;99.90;;;;;;5089822;28;20027;-73
2023/08/31 01:52:22;;;;;;;1999.90;999.90;;;12.60;99.90;;;;;;5088146;28;20039;-73
2023/08/31 01:54:48;;;;;;;1999.90;999.90;;;12.50;99.90;;;;;;5089629;28;20691;-73
2023/08/31 01:57:14;;;;;;;1999.90;999.90;;;12.50;99.90;;;;;;5095824;28;20460;-73
2023/08/31 01:59:39;;;;;;;1999.90;999.90;;;12.50;99.90;;;;;;5102890;28;20024;-72
2023/08/31 02:02:05;;;;;;;1999.90;999.90;;;12.50;99.90;;;;;;5108836;28;20024;-73
2023/08/31 02:04:31;;;;;;;1999.90;999.90;;;12.50;99.90;;;;;;5111338;28;20059;-72
2023/08/31 02:06:57;;;;;;;1999.90;999.90;;;12.40;99.90;;;;;;5112652;28;20032;-73
2023/08/31 02:09:22;;;;;;;1999.90;999.90;;;12.30;99.90;;;;;;5105631;28;20025;-73
2023/08/31 02:11:48;;;;;;;1999.90;999.90;;;12.30;99.90;;;;;;5110881;28;20036;-73
2023/08/31 02:14:14;;;;;;;1999.90;999.90;;;12.30;99.90;;;;;;5099978;28;20590;-73
2023/08/31 02:16:39;;;;;;;1999.90;999.90;;;12.20;99.90;;;;;;5098595;28;20512;-74
2023/08/31 02:19:05;;;;;;;1999.90;999.90;;;12.30;99.90;;;;;;5086407;28;20063;-73
2023/08/31 02:21:31;;;;;;;1999.90;999.90;;;12.30;99.90;;;;;;5082088;28;20494;-72
2023/08/31 02:23:56;;;;;;;1999.90;999.90;;;12.30;99.90;;;;;;5087720;28;20759;-73
2023/08/31 02:26:22;;;;;;;1999.90;999.90;;;12.20;99.90;;;;;;5079462;28;20032;-73
2023/08/31 02:28:48;;;;;;;1999.90;999.90;;;12.10;99.90;;;;;;5088554;28;20024;-73
2023/08/31 02:31:17;;;;;;;1999.90;999.90;;;12.30;99.90;;;;;;5087766;28;20367;-73
2023/08/31 02:33:42;;;;;;;1999.90;999.90;;;12.20;99.90;;;;;;5088537;28;20363;-73
2023/08/31 02:36:08;;;;;;;1999.90;999.90;;;12.30;99.90;;;;;;5087648;28;20047;-73
2023/08/31 02:38:33;;;;;;;1999.90;999.90;;;12.30;99.90;;;;;;5086951;28;20040;-73
2023/08/31 02:40:59;;;;;;;1999.90;999.90;;;12.30;99.90;;;;;;5091840;28;20501;-73
2023/08/31 02:43:25;;;;;;;1999.90;999.90;;;12.30;99.90;;;;;;5093404;28;20032;-72
2023/08/31 02:46:02;;;;;;;1999.90;999.90;;;12.40;99.90;;;;;;5093403;28;20035;-73
2023/08/31 02:48:30;;;;;;;1999.90;999.90;;;12.40;99.90;;;;;;5084679;28;20036;-73
2023/08/31 02:51:02;;;;;;;1999.90;999.90;;;12.30;99.90;;;;;;5092030;28;20035;-74
2023/08/31 02:53:30;;;;;;;1999.90;999.90;;;12.30;99.90;;;;;;5092490;28;20040;-73
2023/08/31 02:55:56;;;;;;;1999.90;999.90;;;12.20;99.90;;;;;;5091720;28;20049;-72
2023/08/31 02:58:22;;;;;;;1999.90;999.90;;;12.20;99.90;;;;;;5092383;28;20040;-73
2023/08/31 03:00:48;;;;;;;1999.90;999.90;;;12.20;99.90;;;;;;5087023;28;20097;-73
2023/08/31 03:03:17;;;;;;;1999.90;999.90;;;12.20;99.90;;;;;;5090397;28;20116;-73
2023/08/31 03:05:43;;;;;;;1999.90;999.90;;;12.20;99.90;;;;;;5092246;28;20042;-73
2023/08/31 03:08:09;;;;;;;1999.90;999.90;;;12.10;99.90;;;;;;5091334;28;20032;-72
2023/08/31 03:10:36;;;;;;;1999.90;999.90;;;12.20;99.90;;;;;;5088607;28;20497;-73
2023/08/31 03:13:02;;;;;;;1999.90;999.90;;;12.10;99.90;;;;;;5091759;28;20028;-73
2023/08/31 03:15:27;;;;;;;1999.90;999.90;;;12.00;99.90;;;;;;5087160;28;20038;-73
2023/08/31 03:17:53;;;;;;;1999.90;999.90;;;12.10;99.90;;;;;;5090494;28;20025;-73
2023/08/31 03:20:19;;;;;;;1999.90;999.90;;;12.10;99.90;;;;;;5087654;28;20040;-72
2023/08/31 03:22:44;;;;;;;1999.90;999.90;;;12.10;99.90;;;;;;5089948;28;20058;-73
2023/08/31 03:25:10;;;;;;;1999.90;999.90;;;12.20;99.90;;;;;;5088833;28;20585;-73
2023/08/31 03:27:35;;;;;;;1999.90;999.90;;;12.20;99.90;;;;;;5091694;28;20057;-73
2023/08/31 03:30:03;;;;;;;1999.90;999.90;;;12.30;99.90;;;;;;5089878;28;20040;-73
2023/08/31 03:32:28;;;;;;;1999.90;999.90;;;12.30;99.90;;;;;;5089720;28;20098;-73
2023/08/31 03:34:54;;;;;;;1999.90;999.90;;;12.20;99.90;;;;;;5090401;28;20454;-73
2023/08/31 03:37:21;;;;;;;1999.90;999.90;;;12.30;99.90;;;;;;5085010;28;20115;-73
2023/08/31 03:39:48;;;;;;;1999.90;999.90;;;12.30;99.90;;;;;;5088490;28;20036;-73
2023/08/31 03:42:13;;;;;;;1999.90;999.90;;;12.30;99.90;;;;;;5084277;28;20040;-73
2023/08/31 03:44:39;;;;;;;1999.90;999.90;;;12.40;99.90;;;;;;5088853;28;20043;-73
2023/08/31 03:47:05;;;;;;;1999.90;999.90;;;12.30;99.90;;;;;;5090211;28;20154;-73
2023/08/31 03:49:31;;;;;;;1999.90;999.90;;;12.40;99.90;;;;;;5088574;28;20032;-73
2023/08/31 03:51:57;;;;;;;1999.90;999.90;;;12.40;99.90;;;;;;5090953;28;20031;-73
2023/08/31 03:54:23;;;;;;;1999.90;999.90;;;12.40;99.90;;;;;;5089422;28;20040;-74
2023/08/31 03:56:49;;;;;;;1999.90;999.90;;;12.40;99.90;;;;;;5085940;28;20043;-74
2023/08/31 03:59:14;;;;;;;1999.90;999.90;;;12.50;99.90;;;;;;5090559;28;20050;-73
2023/08/31 04:01:40;;;;;;;1999.90;999.90;;;12.40;99.90;;;;;;5087687;28;20081;-73
2023/08/31 04:04:06;;;;;;;1999.90;999.90;;;12.50;99.90;;;;;;5093081;28;20039;-72
2023/08/31 04:06:31;;;;;;;1999.90;999.90;;;12.40;99.90;;;;;;5090865;28;20468;-73
2023/08/31 04:08:57;;;;;;;1999.90;999.90;;;12.40;99.90;;;;;;5087875;28;20024;-74
2023/08/31 04:11:24;;;;;;;1999.90;999.90;;;12.50;99.90;;;;;;5088175;28;20035;-73
2023/08/31 04:13:50;;;;;;;1999.90;999.90;;;12.40;99.90;;;;;;5082662;28;20269;-73
2023/08/31 04:16:15;;;;;;;1999.90;999.90;;;12.50;99.90;;;;;;5083320;28;20044;-73
2023/08/31 04:18:41;;;;;;;1999.90;999.90;;;12.50;99.90;;;;;;5089707;28;20036;-73
2023/08/31 04:21:08;;;;;;;1999.90;999.90;;;12.50;99.90;;;;;;5080810;28;20028;-73
2023/08/31 04:23:33;;;;;;;1999.90;999.90;;;12.50;99.90;;;;;;5086123;28;20024;-73
2023/08/31 04:25:59;;;;;;;1999.90;999.90;;;12.40;99.90;;;;;;5083254;28;20390;-73
2023/08/31 04:28:25;;;;;;;1999.90;999.90;;;12.60;99.90;;;;;;5081474;28;20024;-73
2023/08/31 04:30:50;;;;;;;1999.90;999.90;;;12.60;99.90;;;;;;5088881;28;20024;-74
2023/08/31 04:33:17;;;;;;;1999.90;999.90;;;12.50;99.90;;;;;;5087981;28;20035;-74
2023/08/31 04:35:42;;;;;;;1999.90;999.90;;;12.60;99.90;;;;;;5088649;28;20027;-72
2023/08/31 04:38:08;;;;;;;1999.90;999.90;;;12.60;99.90;;;;;;5086336;28;20040;-73
2023/08/31 04:40:34;;;;;;;1999.90;999.90;;;12.50;99.90;;;;;;5082739;28;20401;-73
2023/08/31 04:43:00;;;;;;;1999.90;999.90;;;12.60;99.90;;;;;;5087549;28;20036;-72
2023/08/31 04:45:26;;;;;;;1999.90;999.90;;;12.60;99.90;;;;;;5087422;28;20111;-73
2023/08/31 04:47:52;;;;;;;1999.90;999.90;;;12.50;99.90;;;;;;5085356;28;20143;-73
2023/08/31 04:50:17;;;;;;;1999.90;999.90;;;12.60;99.90;;;;;;5086868;28;20111;-74
2023/08/31 04:52:43;;;;;;;1999.90;999.90;;;12.50;99.90;;;;;;5090035;28;20086;-73
2023/08/31 04:55:10;;;;;;;1999.90;999.90;;;12.50;99.90;;;;;;5083790;28;20055;-73
2023/08/31 04:57:36;;;;;;;1999.90;999.90;;;12.50;99.90;;;;;;5090251;28;20051;-73
2023/08/31 05:00:03;;;;;;;1999.90;999.90;;;12.50;99.90;;;;;;5085367;28;20051;-72
2023/08/31 05:02:28;;;;;;;1999.90;999.90;;;12.50;99.90;;;;;;5089105;28;20517;-73
2023/08/31 05:04:54;;;;;;;1999.90;999.90;;;12.60;99.90;;;;;;5084850;28;20064;-74
2023/08/31 05:07:20;;;;;;;1999.90;999.90;;;12.60;99.90;;;;;;5086194;28;20032;-74
2023/08/31 05:09:45;;;;;;;1999.90;999.90;;;12.60;99.90;;;;;;5089119;28;20428;-74
2023/08/31 05:12:11;;;;;;;1999.90;999.90;;;12.60;99.90;;;;;;5085119;28;20048;-73
2023/08/31 05:14:37;;;;;;;1999.90;999.90;;;12.50;99.90;;;;;;5087181;28;20036;-73
2023/08/31 05:17:04;;;;;;;1999.90;999.90;;;12.50;99.90;;;;;;5089128;28;20032;-71
2023/08/31 05:19:30;;;;;;;1999.90;999.90;;;12.50;99.90;;;;;;5088356;28;20035;-72
2023/08/31 05:21:56;;;;;;;1999.90;999.90;;;12.40;99.90;;;;;;5089239;28;20024;-73
2023/08/31 05:24:22;;;;;;;1999.90;999.90;;;12.40;99.90;;;;;;5089849;28;20401;-73
2023/08/31 05:26:48;;;;;;;1999.90;999.90;;;12.30;99.90;;;;;;5089340;28;20032;-73
2023/08/31 05:29:14;;;;;;;1999.90;999.90;;;12.40;99.90;;;;;;5088304;28;20035;-73
2023/08/31 05:31:40;;;;;;;1999.90;999.90;;;12.30;99.90;;;;;;5087305;28;20032;-73
2023/08/31 05:34:06;;;;;;;1999.90;999.90;;;12.40;99.90;;;;;;5089321;28;20032;-73
2023/08/31 05:36:31;;;;;;;1999.90;999.90;;;12.30;99.90;;;;;;5089970;28;20067;-73
2023/08/31 05:38:57;;;;;;;1999.90;999.90;;;12.40;99.90;;;;;;5088115;28;20059;-73
2023/08/31 05:41:23;;;;;;;1999.90;999.90;;;12.50;99.90;;;;;;5088478;28;20122;-73
2023/08/31 05:43:48;;;;;;;1999.90;999.90;;;12.70;99.90;;;;;;5088783;28;20096;-73
2023/08/31 05:46:14;;;;;;;1999.90;999.90;;;12.60;99.90;;;;;;5086764;28;20114;-73
2023/08/31 05:48:40;;;;;;;1999.90;999.90;;;12.60;99.90;;;;;;5089095;28;20035;-73
2023/08/31 05:51:05;;;;;;;1999.90;999.90;;;12.80;99.90;;;;;;5089411;28;20024;-73
2023/08/31 05:53:31;;;;;;;1999.90;999.90;;;12.90;99.90;;;;;;5087236;28;20040;-74
2023/08/31 05:56:04;;;;;;;1999.90;999.90;;;12.90;99.90;;;;;;5088988;28;20024;-73
2023/08/31 05:58:31;;;;;;;1999.90;999.90;;;13.20;99.90;;;;;;5087231;28;20020;-73
2023/08/31 06:00:57;;;;;;;1999.90;999.90;;;13.00;99.90;;;;;;5088765;28;20032;-73
2023/08/31 06:03:23;;;;;;;1999.90;999.90;;;12.90;99.90;;;;;;5088547;28;20050;-73
2023/08/31 06:05:48;;;;;;;1999.90;999.90;;;12.80;99.90;;;;;;5088152;28;20473;-73
2023/08/31 06:08:14;;;;;;;1999.90;999.90;;;12.80;99.90;;;;;;5092331;28;20057;-73
2023/08/31 06:10:39;;;;;;;1999.90;999.90;;;12.90;99.90;;;;;;5092985;28;20209;-74
2023/08/31 06:13:05;;;;;;;1999.90;999.90;;;13.10;99.90;;;;;;5093594;28;20053;-72
2023/08/31 06:15:31;;;;;;;1999.90;999.90;;;13.40;99.90;;;;;;5090619;28;20491;-73
2023/08/31 06:17:57;;;;;;;1999.90;999.90;;;13.40;99.90;;;;;;5090370;28;20040;-73
2023/08/31 06:20:23;;;;;;;1999.90;999.90;;;13.50;99.90;;;;;;5092731;28;20043;-73
2023/08/31 06:22:49;;;;;;;1999.90;999.90;;;13.50;99.90;;;;;;5093175;28;20089;-72
2023/08/31 06:25:16;;;;;;;1999.90;999.90;;;13.50;99.90;;;;;;5092820;28;20032;-73
2023/08/31 06:27:45;;;;;;;1999.90;999.90;;;13.50;99.90;;;;;;5092657;28;20040;-72
2023/08/31 06:30:15;;;;;;;1999.90;999.90;;;13.60;99.90;;;;;;5091334;28;20047;-74
2023/08/31 06:32:43;;;;;;;1999.90;999.90;;;13.50;99.90;;;;;;5086223;28;20123;-73
2023/08/31 06:35:08;;;;;;;1999.90;999.90;;;13.40;99.90;;;;;;5090181;28;20038;-72
2023/08/31 06:37:34;;;;;;;1999.90;999.90;;;13.40;99.90;;;;;;5093997;28;20028;-73
2023/08/31 06:39:59;;;;;;;1999.90;999.90;;;13.30;99.90;;;;;;5090968;28;20656;-73
2023/08/31 06:42:25;;;;;;;1999.90;999.90;;;13.30;99.90;;;;;;5089390;28;20032;-72
2023/08/31 06:44:51;;;;;;;1999.90;999.90;;;13.20;99.90;;;;;;5093764;28;20172;-73
2023/08/31 06:47:17;;;;;;;1999.90;999.90;;;13.00;99.90;;;;;;5093492;28;20675;-73
2023/08/31 06:49:43;;;;;;;1999.90;999.90;;;12.90;99.90;;;;;;5092212;28;20085;-73
2023/08/31 06:52:09;;;;;;;1999.90;999.90;;;12.90;99.90;;;;;;5090621;28;20539;-73
2023/08/31 06:54:34;;;;;;;1999.90;999.90;;;13.00;99.90;;;;;;5089077;28;20052;-73
2023/08/31 06:57:00;;;;;;;1999.90;999.90;;;13.10;99.90;;;;;;5090591;28;20078;-72
2023/08/31 06:59:26;;;;;;;1999.90;999.90;;;13.10;99.90;;;;;;5090664;28;20032;-73
2023/08/31 07:01:51;;;;;;;1999.90;999.90;;;13.10;99.90;;;;;;5091947;28;20036;-73
2023/08/31 07:04:17;;;;;;;1999.90;999.90;;;12.90;99.90;;;;;;5090655;28;20097;-73
2023/08/31 07:06:43;;;;;;;1999.90;999.90;;;12.80;99.90;;;;;;5090820;28;20368;-73
2023/08/31 07:09:08;;;;;;;1999.90;999.90;;;12.90;99.90;;;;;;5091080;28;20035;-73
2023/08/31 07:11:34;;;;;;;1999.90;999.90;;;13.20;99.90;;;;;;5092026;28;20123;-73
2023/08/31 07:14:00;;;;;;;1999.90;999.90;;;13.30;99.90;;;;;;5092105;28;20406;-73
2023/08/31 07:16:26;;;;;;;1999.90;999.90;;;13.30;99.90;;;;;;5090773;28;20035;-73
2023/08/31 07:18:52;;;;;;;1999.90;999.90;;;13.20;99.90;;;;;;5090475;28;20036;-73
2023/08/31 07:21:17;;;;;;;1999.90;999.90;;;13.20;99.90;;;;;;5087757;28;20036;-73
2023/08/31 07:23:43;;;;;;;1999.90;999.90;;;13.20;99.90;;;;;;5091847;28;20455;-74
2023/08/31 07:26:09;;;;;;;1999.90;999.90;;;13.10;99.90;;;;;;5091905;28;20040;-72
2023/08/31 07:28:35;;;;;;;1999.90;999.90;;;13.10;99.90;;;;;;5087142;28;20028;-73
2023/08/31 07:31:06;;;;;;;1999.90;999.90;;;13.40;99.90;;;;;;5089194;28;20050;-73
2023/08/31 07:33:34;;;;;;;1999.90;999.90;;;13.30;99.90;;;;;;5086115;28;20082;-73
2023/08/31 07:36:00;;;;;;;1999.90;999.90;;;13.10;99.90;;;;;;5091828;28;20142;-73
2023/08/31 07:38:26;;;;;;;1999.90;999.90;;;13.30;99.90;;;;;;5091173;28;20486;-73
2023/08/31 07:40:53;;;;;;;1999.90;999.90;;;13.40;99.90;;;;;;5089618;28;20055;-73
2023/08/31 07:43:19;;;;;;;1999.90;999.90;;;13.40;99.90;;;;;;5091124;28;20044;-73
2023/08/31 07:45:44;;;;;;;1999.90;999.90;;;13.40;99.90;;;;;;5091533;28;20028;-73
2023/08/31 07:48:10;;;;;;;1999.90;999.90;;;13.40;99.90;;;;;;5089079;28;20119;-74
2023/08/31 07:50:36;;;;;;;1999.90;999.90;;;13.50;99.90;;;;;;5091870;28;20614;-73
2023/08/31 07:53:03;;;;;;;1999.90;999.90;;;13.60;99.90;;;;;;5091308;28;20036;-73
2023/08/31 07:55:29;;;;;;;1999.90;999.90;;;13.70;99.90;;;;;;5087664;28;20131;-73
2023/08/31 07:57:54;;;;;;;1999.90;999.90;;;14.00;99.90;;;;;;5090900;28;20106;-73
2023/08/31 08:00:20;;;;;;;1999.90;999.90;;;14.20;99.90;;;;;;5091864;28;20043;-73
2023/08/31 08:02:46;;;;;;;1999.90;999.90;;;14.20;99.90;;;;;;5088212;28;20035;-73
2023/08/31 08:05:12;;;;;;;1999.90;999.90;;;13.70;98.20;;;;;;5089908;28;20044;-74
2023/08/31 08:07:37;;;;;;;1999.90;999.90;;;14.00;99.90;;;;;;5096330;28;20073;-73
2023/08/31 08:10:03;;;;;;;1999.90;999.90;;;14.00;99.60;;;;;;5108996;28;20025;-73
2023/08/31 08:12:40;;;;;;;1999.90;999.90;;;13.80;98.30;;;;;;5101692;28;20032;-73
2023/08/31 08:15:08;;;;;;;1999.90;999.90;;;13.90;98.60;;;;;;5105868;28;20059;-73
2023/08/31 08:17:33;;;;;;;1999.90;999.90;;;13.80;94.70;;;;;;5106594;28;20020;-72
2023/08/31 08:19:59;;;;;;;1999.90;999.90;;;13.90;92.90;;;;;;5097369;28;20586;-72
2023/08/31 08:22:25;;;;;;;1999.90;999.90;;;13.80;90.90;;;;;;5091915;28;20036;-73
2023/08/31 08:24:51;;;;;;;1999.90;999.90;;;13.90;90.40;;;;;;5092247;28;20734;-73
2023/08/31 08:27:18;;;;;;;1999.90;999.90;;;14.00;90.00;;;;;;5088905;28;20033;-73
2023/08/31 08:29:45;;;;;;;1999.90;999.90;;;14.10;90.90;;;;;;5089265;28;20479;-73
2023/08/31 08:32:10;;;;;;;1999.90;999.90;;;14.30;90.00;;;;;;5087629;28;20406;-73
2023/08/31 08:34:36;;;;;;;1999.90;999.90;;;14.30;88.00;;;;;;5093984;28;20020;-73
2023/08/31 08:37:03;;;;;;;1999.90;999.90;;;14.40;87.70;;;;;;5089216;28;20040;-73
2023/08/31 08:39:29;;;;;;;1999.90;999.90;;;14.60;85.30;;;;;;5090330;28;20039;-73
2023/08/31 08:41:59;;;;;;;1999.90;999.90;;;14.70;85.60;;;;;;5086372;28;20033;-73
2023/08/31 08:44:26;;;;;;;1999.90;999.90;;;14.80;83.40;;;;;;5089784;28;20036;-73
2023/08/31 08:46:53;;;;;;;1999.90;999.90;;;14.80;82.70;;;;;;5088924;28;20126;-73
2023/08/31 08:49:19;;;;;;;1999.90;999.90;;;15.20;84.80;;;;;;5092346;28;20077;-74
2023/08/31 08:51:50;;;;;;;1999.90;999.90;;;15.30;79.00;;;;;;5089787;28;20497;-74
2023/08/31 08:54:18;;;;;;;1999.90;999.90;;;15.20;78.80;;;;;;5086006;28;20051;-73
2023/08/31 08:56:43;;;;;;;1999.90;999.90;;;15.20;78.30;;;;;;5086291;28;20034;-73
2023/08/31 08:59:13;;;;;;;1999.90;999.90;;;15.50;79.50;;;;;;5090058;28;20035;-73
2023/08/31 09:01:39;;;;;;;1999.90;999.90;;;16.10;78.30;;;;;;5090253;28;20053;-73
2023/08/31 09:04:05;;;;;;;1999.90;999.90;;;16.50;77.80;;;;;;5087755;28;20047;-73
2023/08/31 09:06:30;;;;;;;1999.90;999.90;;;17.00;71.90;;;;;;5088814;28;20498;-73
2023/08/31 09:08:56;;;;;;;1999.90;999.90;;;17.10;69.10;;;;;;5092526;28;20036;-73
2023/08/31 09:11:23;;;;;;;1999.90;999.90;;;17.10;67.90;;;;;;5091343;28;20039;-72
2023/08/31 09:13:50;;;;;;;1999.90;999.90;;;16.50;65.00;;;;;;5088900;28;20111;-73
2023/08/31 09:16:28;;;;;;;1999.90;999.90;;;16.00;66.20;;;;;;5088281;28;20039;-73
2023/08/31 09:18:57;;;;;;;1999.90;999.90;;;15.50;67.70;;;;;;5087592;28;20107;-73
2023/08/31 09:21:34;;;;;;;1999.90;999.90;;;15.70;68.20;;;;;;5091125;28;20063;-73
2023/08/31 09:24:00;;;;;;;1999.90;999.90;;;15.80;68.20;;;;;;5088925;28;20111;-73
2023/08/31 09:26:26;;;;;;;1999.90;999.90;;;15.80;67.40;;;;;;5091358;28;20127;-73
2023/08/31 09:28:52;;;;;;;1999.90;999.90;;;15.70;65.40;;;;;;5085450;28;20138;-74
2023/08/31 09:31:18;;;;;;;1999.90;999.90;;;15.90;64.90;;;;;;5081889;28;20042;-73
2023/08/31 09:33:52;;;;;;;1999.90;999.90;;;15.90;63.40;;;;;;5085813;28;20044;-73
2023/08/31 09:36:20;;;;;;;1999.90;999.90;;;15.90;62.20;;;;;;5079131;28;20033;-73
2023/08/31 09:38:46;;;;;;;1999.90;999.90;;;16.20;64.80;;;;;;5085740;28;20066;-74
2023/08/31 09:41:12;;;;;;;1999.90;999.90;;;16.40;64.20;;;;;;5076893;28;20064;-73
2023/08/31 09:43:38;;;;;;;1999.90;999.90;;;16.30;62.80;;;;;;5085456;28;20503;-73
2023/08/31 09:46:04;;;;;;;1999.90;999.90;;;16.10;62.10;;;;;;5087379;28;20035;-74
2023/08/31 09:48:31;;;;;;;1999.90;999.90;;;16.40;64.80;;;;;;5083033;28;20020;-73
2023/08/31 09:50:57;;;;;;;1999.90;999.90;;;16.50;61.80;;;;;;5085508;28;20021;-73
2023/08/31 09:53:29;;;;;;;1999.90;999.90;;;16.50;61.10;;;;;;5086975;28;20477;-73
2023/08/31 09:55:57;;;;;;;1999.90;999.90;;;16.60;61.30;;;;;;5083010;28;20693;-73
2023/08/31 09:58:23;;;;;;;1999.90;999.90;;;16.60;61.90;;;;;;5088839;28;20032;-73
2023/08/31 10:00:51;;;;;;;1999.90;999.90;;;16.80;64.30;;;;;;5084632;28;20059;-73
2023/08/31 10:03:17;;;;;;;1999.90;999.90;;;16.90;60.90;;;;;;5087072;28;20024;-72
2023/08/31 10:05:43;;;;;;;1999.90;999.90;;;17.30;63.10;;;;;;5088598;28;20478;-73
2023/08/31 10:08:10;;;;;;;1999.90;999.90;;;17.70;61.50;;;;;;5089848;28;20066;-72
2023/08/31 10:10:37;;;;;;;1999.90;999.90;;;18.10;59.40;;;;;;5088801;28;20118;-73
2023/08/31 10:13:05;;;;;;;1999.90;999.90;;;18.40;59.00;;;;;;5085818;28;20551;-73
2023/08/31 10:15:37;;;;;;;1999.90;999.90;;;18.10;56.10;;;;;;5086649;28;20028;-73
2023/08/31 10:18:06;;;;;;;1999.90;999.90;;;18.10;55.90;;;;;;5082872;28;20062;-73
2023/08/31 10:20:34;;;;;;;1999.90;999.90;;;18.00;53.90;;;;;;5078339;28;20064;-74
2023/08/31 10:23:03;;;;;;;1999.90;999.90;;;17.50;53.50;;;;;;5077553;28;20063;-73
2023/08/31 10:25:54;;;;;;;1999.90;999.90;;;17.10;54.60;;;;;;5088026;28;20531;-73
2023/08/31 10:28:24;;;;;;;1999.90;999.90;;;16.70;54.00;;;;;;5081106;28;20102;-73
2023/08/31 10:31:03;;;;;;;1999.90;999.90;;;16.70;54.80;;;;;;5079065;28;20056;-73
2023/08/31 10:33:54;;;;;;;1999.90;999.90;;;16.80;55.40;;;;;;5078462;28;20032;-73
2023/08/31 10:36:20;;;;;;;1999.90;999.90;;;17.10;55.00;;;;;;5067174;28;20047;-73
2023/08/31 10:38:58;;;;;;;1999.90;999.90;;;17.40;53.00;;;;;;5080366;28;20601;-73
2023/08/31 10:41:25;;;;;;;1999.90;999.90;;;17.40;52.40;;;;;;5079740;28;20051;-73
2023/08/31 10:43:57;;;;;;;1999.90;999.90;;;17.40;51.10;;;;;;5078147;28;20040;-73
2023/08/31 10:46:29;;;;;;;1999.90;999.90;;;17.20;51.60;;;;;;5078601;28;20102;-73
2023/08/31 10:49:09;;;;;;;1999.90;999.90;;;17.40;55.30;;;;;;5081810;28;20025;-73
2023/08/31 10:51:37;;;;;;;1999.90;999.90;;;17.50;51.10;;;;;;5079856;28;20754;-73
2023/08/31 10:54:15;;;;;;;1999.90;999.90;;;17.60;51.40;;;;;;5080236;28;20152;-73
2023/08/31 10:57:08;;;;;;;1999.90;999.90;;;17.50;50.60;;;;;;5091629;28;20039;-73
2023/08/31 10:59:45;;;;;;;1999.90;999.90;;;17.50;52.20;;;;;;5083312;28;20020;-73
2023/08/31 11:02:33;;;;;;;1999.90;999.90;;;17.70;50.00;;;;;;5085498;28;20382;-73
2023/08/31 11:05:09;;;;;;;1999.90;999.90;;;17.60;51.50;;;;;;5090018;28;20032;-73
2023/08/31 11:07:35;;;;;;;1999.90;999.90;;;17.20;52.10;;;;;;5083210;28;20028;-73
2023/08/31 11:10:19;;;;;;;1999.90;999.90;;;17.00;53.80;;;;;;5085381;28;20454;-73
2023/08/31 11:12:47;;;;;;;1999.90;999.90;;;16.80;54.80;;;;;;5088381;28;20062;-73
2023/08/31 11:15:14;;;;;;;1999.90;999.90;;;16.90;54.70;;;;;;5082859;28;20491;-73
2023/08/31 11:17:41;;;;;;;1999.90;999.90;;;17.30;55.00;;;;;;5089357;28;20067;-73
2023/08/31 11:20:09;;;;;;;1999.90;999.90;;;18.00;51.20;;;;;;5084647;28;20056;-73
2023/08/31 11:22:38;;;;;;;1999.90;999.90;;;19.40;53.90;;;;;;5091076;28;20478;-73
2023/08/31 11:25:04;;;;;;;1999.90;999.90;;;19.70;45.00;;;;;;5084046;28;20063;-73
2023/08/31 11:27:30;;;;;;;1999.90;999.90;;;20.70;47.00;;;;;;5085794;28;20082;-73
2023/08/31 11:29:56;;;;;;;1999.90;999.90;;;21.20;44.30;;;;;;5081776;28;20032;-73
2023/08/31 11:32:25;;;;;;;1999.90;999.90;;;21.50;43.50;;;;;;5081944;28;20456;-71
2023/08/31 11:34:51;;;;;;;1999.90;999.90;;;20.60;42.70;;;;;;5089024;28;20086;-71
2023/08/31 11:37:19;;;;;;;1999.90;999.90;;;19.10;45.00;;;;;;5080051;28;20032;-72
2023/08/31 11:39:52;;;;;;;1999.90;999.90;;;18.50;48.80;;;;;;5083586;28;20048;-73
2023/08/31 11:42:19;;;;;;;1999.90;999.90;;;18.30;51.90;;;;;;5076277;28;20038;-74
2023/08/31 11:44:49;;;;;;;1999.90;999.90;;;18.20;51.20;;;;;;5083167;28;20035;-73
2023/08/31 11:47:16;;;;;;;1999.90;999.90;;;17.90;52.20;;;;;;5087735;28;20115;-73
2023/08/31 11:49:42;;;;;;;1999.90;999.90;;;18.00;52.70;;;;;;5092395;28;20036;-72
2023/08/31 11:52:11;;;;;;;1999.90;999.90;;;18.20;53.10;;;;;;5105432;28;20035;-72
2023/08/31 11:54:39;;;;;;;1999.90;999.90;;;17.90;50.90;;;;;;5091585;28;20108;-73
2023/08/31 11:57:08;;;;;;;1999.90;999.90;;;17.60;53.60;;;;;;5087578;28;20483;-73
2023/08/31 11:59:36;;;;;;;1999.90;999.90;;;17.80;52.10;;;;;;5081555;28;20039;-73
2023/08/31 12:02:02;;;;;;;1999.90;999.90;;;18.20;51.50;;;;;;5089880;28;20055;-73